Time;durP1;ratioP1;P1;durP2;ratioP2;P2;SDS_P1;SDS_P2;PMS_P1;PMS_P2;Temp;Humidity;BMP_temperature;BMP_pressure;BME280_temperature;BME280_humidity;BME280_pressure;Samples;Min_cycle;Max_cycle;Signal;HPM_P1;HPM_P2
2022/04/03 00:01:10;;;;;;;2.13;1.30;;;;;;;2.16;64.41;96737.41;4972994;28;20078;-74
2022/04/03 00:03:36;;;;;;;3.15;1.58;;;;;;;2.20;64.27;96744.63;4971041;28;20050;-74
2022/04/03 00:06:02;;;;;;;2.58;1.40;;;;;;;2.23;64.11;96745.94;4971571;28;20051;-74
2022/04/03 00:08:31;;;;;;;3.40;1.38;;;;;;;2.18;64.33;96743.31;4973119;28;20078;-74
2022/04/03 00:10:57;;;;;;;3.33;1.42;;;;;;;2.06;64.77;96744.59;4970918;28;20404;-74
2022/04/03 00:13:24;;;;;;;3.40;1.60;;;;;;;2.03;64.69;96745.19;4970321;28;20411;-74
2022/04/03 00:15:50;;;;;;;3.22;1.70;;;;;;;2.09;64.60;96741.31;4973244;28;20491;-75
2022/04/03 00:18:16;;;;;;;4.45;1.90;;;;;;;2.15;64.33;96744.72;4970827;28;20511;-75
2022/04/03 00:20:43;;;;;;;4.72;2.15;;;;;;;2.14;64.38;96735.03;4972014;28;20089;-75
2022/04/03 00:23:10;;;;;;;4.85;2.17;;;;;;;2.15;64.56;96738.53;4971688;28;20050;-75
2022/04/03 00:25:38;;;;;;;5.18;2.30;;;;;;;2.19;64.25;96736.84;4955188;28;20047;-73
2022/04/03 00:28:04;;;;;;;5.65;2.35;;;;;;;2.13;64.21;96736.91;4970934;28;20051;-74
2022/04/03 00:30:31;;;;;;;7.05;2.67;;;;;;;2.12;64.54;96727.25;4970809;28;20138;-74
2022/04/03 00:32:57;;;;;;;6.05;2.75;;;;;;;2.06;64.70;96733.00;4971714;28;20053;-74
2022/04/03 00:35:24;;;;;;;4.93;2.40;;;;;;;2.11;64.53;96730.25;4971674;28;20071;-73
2022/04/03 00:37:50;;;;;;;4.32;2.10;;;;;;;2.04;64.69;96719.84;4971920;28;20074;-75
2022/04/03 00:40:17;;;;;;;4.45;2.00;;;;;;;2.10;64.77;96723.22;4971374;28;20054;-75
2022/04/03 00:42:45;;;;;;;3.03;1.60;;;;;;;2.06;64.66;96720.34;4970559;28;20051;-75
2022/04/03 00:45:11;;;;;;;4.30;1.75;;;;;;;2.04;64.70;96724.41;4943810;28;20090;-74
2022/04/03 00:47:37;;;;;;;3.20;1.58;;;;;;;2.10;64.54;96717.84;4955587;28;20043;-74
2022/04/03 00:50:05;;;;;;;4.07;1.60;;;;;;;2.13;64.51;96719.97;4973041;28;20054;-75
2022/04/03 00:52:32;;;;;;;3.78;1.77;;;;;;;2.09;64.66;96711.66;4960820;28;20101;-75
2022/04/03 00:54:58;;;;;;;4.38;1.80;;;;;;;2.00;64.74;96712.63;4970796;28;20125;-75
2022/04/03 00:57:26;;;;;;;2.83;1.42;;;;;;;2.16;64.39;96715.84;4970638;28;20059;-76
2022/04/03 00:59:55;;;;;;;2.78;1.45;;;;;;;2.18;64.34;96701.00;4969842;28;20125;-76
2022/04/03 01:02:21;;;;;;;3.88;1.55;;;;;;;2.11;64.44;96703.28;4971078;28;20047;-76
2022/04/03 01:04:48;;;;;;;3.13;1.50;;;;;;;2.06;64.45;96719.53;4969923;28;20688;-76
2022/04/03 01:07:14;;;;;;;2.78;1.52;;;;;;;2.09;64.06;96705.44;4971368;28;20167;-76
2022/04/03 01:09:41;;;;;;;3.20;1.50;;;;;;;2.08;64.40;96704.66;4983307;28;20451;-76
2022/04/03 01:12:07;;;;;;;2.55;1.45;;;;;;;2.03;64.59;96699.38;4987163;28;20059;-76
2022/04/03 01:14:35;;;;;;;3.05;1.45;;;;;;;2.05;64.58;96705.25;4983593;28;20062;-76
2022/04/03 01:17:03;;;;;;;2.92;1.60;;;;;;;2.06;64.30;96695.28;4969601;28;20559;-76
2022/04/03 01:19:29;;;;;;;4.93;1.42;;;;;;;2.12;64.29;96704.88;4986580;28;20046;-76
2022/04/03 01:21:56;;;;;;;2.13;1.30;;;;;;;2.06;64.12;96695.28;4968572;28;20050;-75
2022/04/03 01:24:23;;;;;;;3.30;1.55;;;;;;;2.05;64.35;96699.06;4970826;28;20050;-76
2022/04/03 01:26:51;;;;;;;3.03;1.40;;;;;;;2.01;64.53;96696.16;4969450;28;20042;-70
2022/04/03 01:29:17;;;;;;;;;;;;;;;2.01;64.48;96698.84;4992988;28;20053;-71
2022/04/03 01:31:43;;;;;;;1.73;1.30;;;;;;;1.80;64.80;96682.22;4976766;28;20418;-72
2022/04/03 01:34:10;;;;;;;3.25;1.52;;;;;;;1.93;64.35;96694.94;4970282;28;20043;-73
2022/04/03 01:36:36;;;;;;;2.63;1.30;;;;;;;1.92;64.67;96693.31;4982167;28;20083;-72
2022/04/03 01:39:02;;;;;;;2.25;1.25;;;;;;;1.90;64.52;96692.81;4963729;28;20050;-73
2022/04/03 01:41:29;;;;;;;2.05;1.20;;;;;;;1.95;64.48;96697.34;4971805;28;20050;-71
2022/04/03 01:43:56;;;;;;;2.92;1.50;;;;;;;1.85;64.53;96690.22;4969185;28;20043;-72
2022/04/03 01:46:22;;;;;;;2.05;1.30;;;;;;;2.00;64.26;96696.47;4927154;28;20074;-71
2022/04/03 01:48:49;;;;;;;3.08;1.45;;;;;;;1.98;64.06;96685.97;4972142;28;20057;-72
2022/04/03 01:51:15;;;;;;;3.03;1.50;;;;;;;1.91;64.01;96683.66;4972036;28;20432;-72
2022/04/03 01:53:41;;;;;;;2.83;1.50;;;;;;;2.04;63.77;96692.06;4970694;28;20415;-72
2022/04/03 01:56:08;;;;;;;2.58;1.30;;;;;;;2.06;63.67;96693.38;4953678;28;20138;-72
2022/04/03 01:58:35;;;;;;;2.17;1.20;;;;;;;1.95;63.91;96697.34;4990272;28;20051;-70
2022/04/03 02:01:04;;;;;;;2.60;1.30;;;;;;;1.92;64.22;96690.63;4972505;28;20046;-72
2022/04/03 02:03:30;;;;;;;3.58;1.65;;;;;;;1.87;64.30;96679.94;4973294;28;20318;-71
2022/04/03 02:05:57;;;;;;;2.15;1.23;;;;;;;1.95;63.62;96686.56;4971726;28;20090;-72
2022/04/03 02:08:23;;;;;;;3.42;1.38;;;;;;;1.91;64.07;96685.56;4970627;28;20050;-71
2022/04/03 02:10:49;;;;;;;2.17;1.40;;;;;;;1.89;63.92;96680.44;4973540;28;20053;-72
2022/04/03 02:13:16;;;;;;;2.38;1.40;;;;;;;1.95;63.67;96679.28;4973386;28;20046;-72
2022/04/03 02:15:42;;;;;;;2.40;1.45;;;;;;;2.02;63.49;96665.41;4977863;28;20388;-72
2022/04/03 02:18:12;;;;;;;2.75;1.35;;;;;;;1.88;63.45;96651.13;4972440;28;20054;-70
2022/04/03 02:20:39;;;;;;;2.17;1.40;;;;;;;1.82;63.69;96656.56;4989273;28;20482;-72
2022/04/03 02:23:05;;;;;;;1.52;1.23;;;;;;;1.92;63.42;96670.97;4974855;28;20054;-73
2022/04/03 02:25:32;;;;;;;2.45;1.48;;;;;;;1.90;63.73;96678.56;4974195;28;20093;-74
2022/04/03 02:28:01;;;;;;;3.83;1.75;;;;;;;1.94;63.42;96671.47;4979425;28;20063;-75
2022/04/03 02:30:28;;;;;;;3.00;1.50;;;;;;;2.10;63.09;96669.31;4980063;28;20046;-72
2022/04/03 02:32:54;;;;;;;3.28;1.77;;;;;;;2.05;62.46;96662.13;4974138;28;20047;-71
2022/04/03 02:35:21;;;;;;;3.10;1.70;;;;;;;2.09;62.45;96662.31;4976777;28;20051;-73
2022/04/03 02:37:47;;;;;;;3.13;1.58;;;;;;;2.03;62.74;96671.59;4974079;28;20047;-72
2022/04/03 02:40:16;;;;;;;3.35;1.67;;;;;;;1.92;62.95;96661.00;4988309;28;20447;-72
2022/04/03 02:42:43;;;;;;;2.72;1.60;;;;;;;1.79;63.34;96659.03;4974132;28;20046;-72
2022/04/03 02:45:10;;;;;;;3.05;1.67;;;;;;;1.94;62.99;96677.66;4972782;28;20057;-71
2022/04/03 02:47:36;;;;;;;;;;;;;;;1.93;63.04;96669.88;4974700;28;20051;-71
2022/04/03 02:50:04;;;;;;;3.00;1.60;;;;;;;1.91;62.74;96656.69;4974108;28;19933;-72
2022/04/03 02:52:31;;;;;;;2.90;1.65;;;;;;;1.81;63.09;96668.44;4974637;28;20062;-71
2022/04/03 02:54:58;;;;;;;3.10;1.60;;;;;;;1.85;63.00;96663.28;4969588;28;20124;-72
2022/04/03 02:57:24;;;;;;;3.85;1.60;;;;;;;1.73;63.33;96676.41;4981744;28;20426;-73
2022/04/03 02:59:51;;;;;;;2.33;1.40;;;;;;;1.82;63.07;96675.44;4974117;28;20061;-72
2022/04/03 03:02:17;;;;;;;2.35;1.50;;;;;;;1.88;62.73;96669.97;4988313;28;20053;-73
2022/04/03 03:04:43;;;;;;;3.42;1.70;;;;;;;1.81;62.89;96673.84;4973068;28;20049;-72
2022/04/03 03:07:10;;;;;;;4.18;1.92;;;;;;;1.94;62.45;96679.56;4972753;28;20050;-72
2022/04/03 03:09:37;;;;;;;5.00;1.92;;;;;;;1.77;62.41;96666.63;4972572;28;20105;-71
2022/04/03 03:12:05;;;;;;;3.72;1.67;;;;;;;1.88;62.18;96686.16;4989530;28;20558;-72
2022/04/03 03:14:31;;;;;;;2.42;1.52;;;;;;;1.73;62.67;96688.00;4992148;28;20458;-70
2022/04/03 03:16:57;;;;;;;3.40;1.70;;;;;;;1.76;62.69;96689.28;4973080;28;20055;-70
2022/04/03 03:19:23;;;;;;;3.30;1.77;;;;;;;1.82;62.48;96699.69;4988916;28;20047;-71
2022/04/03 03:21:49;;;;;;;3.10;1.60;;;;;;;1.74;62.78;96692.28;4972226;28;20146;-72
2022/04/03 03:24:16;;;;;;;2.70;1.55;;;;;;;1.74;62.60;96686.06;4972692;28;20046;-73
2022/04/03 03:26:43;;;;;;;4.40;1.77;;;;;;;1.87;62.42;96693.41;4990506;28;20050;-73
2022/04/03 03:29:10;;;;;;;3.67;1.60;;;;;;;1.86;62.37;96685.63;4985001;28;20571;-73
2022/04/03 03:31:36;;;;;;;3.97;1.63;;;;;;;2.00;62.07;96693.75;4975766;28;20047;-73
2022/04/03 03:34:02;;;;;;;4.80;1.80;;;;;;;2.02;61.77;96686.19;4971542;28;20086;-73
2022/04/03 03:36:29;;;;;;;4.03;1.77;;;;;;;1.89;62.03;96693.13;4973616;28;20050;-73
2022/04/03 03:38:56;;;;;;;3.13;1.50;;;;;;;2.02;61.66;96694.25;4974196;28;20062;-73
2022/04/03 03:41:22;;;;;;;3.60;1.67;;;;;;;2.01;61.50;96684.59;4972630;28;20511;-73
2022/04/03 03:43:49;;;;;;;3.38;1.60;;;;;;;2.00;61.24;96677.59;4971115;28;20105;-71
2022/04/03 03:46:15;;;;;;;3.05;1.60;;;;;;;1.98;61.46;96683.25;4973816;28;20082;-73
2022/04/03 03:48:41;;;;;;;3.78;1.88;;;;;;;1.90;61.22;96689.34;4973868;28;20138;-72
2022/04/03 03:51:08;;;;;;;3.88;1.70;;;;;;;1.89;61.31;96695.81;4970945;28;20082;-72
2022/04/03 03:53:34;;;;;;;3.10;1.70;;;;;;;1.92;61.28;96698.72;4973067;28;20149;-71
2022/04/03 03:56:00;;;;;;;3.80;1.60;;;;;;;1.95;61.01;96710.81;4972268;28;20051;-72
2022/04/03 03:58:26;;;;;;;3.33;1.60;;;;;;;1.99;60.90;96698.34;4971390;28;20111;-68
2022/04/03 04:00:53;;;;;;;4.20;1.80;;;;;;;1.89;60.98;96706.59;4966955;28;20050;-68
2022/04/03 04:03:19;;;;;;;2.42;1.45;;;;;;;1.86;61.00;96696.41;4973010;28;20061;-71
2022/04/03 04:05:45;;;;;;;3.88;1.67;;;;;;;2.01;60.77;96703.44;4991221;28;20093;-71
2022/04/03 04:08:11;;;;;;;3.88;1.60;;;;;;;2.10;60.30;96715.13;4973615;28;20078;-70
2022/04/03 04:10:37;;;;;;;3.50;1.50;;;;;;;1.99;60.08;96706.44;4970327;28;20074;-73
2022/04/03 04:13:04;;;;;;;2.55;1.50;;;;;;;2.01;60.29;96716.91;4982076;28;20046;-72
2022/04/03 04:15:30;;;;;;;3.60;1.60;;;;;;;2.13;60.00;96714.56;4974952;28;20103;-72
2022/04/03 04:17:57;;;;;;;2.92;1.52;;;;;;;2.05;60.11;96724.13;4973310;28;20054;-72
2022/04/03 04:20:24;;;;;;;3.17;1.50;;;;;;;1.97;59.74;96714.00;4970684;28;20055;-72
2022/04/03 04:22:52;;;;;;;3.38;1.52;;;;;;;2.05;60.08;96717.94;4969963;28;20054;-72
2022/04/03 04:25:19;;;;;;;3.70;1.70;;;;;;;2.11;59.52;96717.56;4970563;28;20047;-77
2022/04/03 04:27:46;;;;;;;4.10;1.88;;;;;;;2.15;59.33;96730.44;4978149;28;20576;-79
2022/04/03 04:30:13;;;;;;;2.90;1.48;;;;;;;2.18;59.29;96725.25;4967848;28;20066;-76
2022/04/03 04:32:39;;;;;;;4.97;1.55;;;;;;;2.25;59.07;96733.75;4983780;28;20626;-74
2022/04/03 04:35:08;;;;;;;3.80;1.50;;;;;;;2.27;58.98;96728.09;4987868;28;20050;-74
2022/04/03 04:37:34;;;;;;;3.00;1.50;;;;;;;2.31;58.75;96731.00;4971876;28;20047;-74
2022/04/03 04:40:01;;;;;;;2.60;1.40;;;;;;;2.32;58.62;96730.69;4972766;28;20138;-72
2022/04/03 04:42:28;;;;;;;4.20;1.92;;;;;;;2.21;58.78;96740.06;4971748;28;20061;-74
2022/04/03 04:44:54;;;;;;;4.22;1.73;;;;;;;2.24;58.59;96736.75;4986505;28;20506;-74
2022/04/03 04:47:20;;;;;;;2.88;1.42;;;;;;;2.23;58.49;96738.66;4970539;28;20055;-74
2022/04/03 04:49:46;;;;;;;3.80;1.92;;;;;;;2.23;58.74;96759.44;4986666;28;20070;-72
2022/04/03 04:52:13;;;;;;;3.55;1.50;;;;;;;2.43;58.20;96754.78;4971277;28;20419;-76
2022/04/03 04:54:40;;;;;;;3.90;1.70;;;;;;;2.41;58.09;96755.06;4969812;28;20055;-76
2022/04/03 04:57:06;;;;;;;7.85;1.67;;;;;;;2.33;58.29;96753.06;4970307;28;20113;-75
2022/04/03 04:59:32;;;;;;;2.65;1.50;;;;;;;2.44;57.96;96761.78;4985321;28;20051;-78
2022/04/03 05:01:59;;;;;;;2.97;1.50;;;;;;;2.37;57.92;96754.88;4971955;28;20064;-77
2022/04/03 05:04:26;;;;;;;6.80;1.42;;;;;;;2.42;58.06;96754.00;4969537;28;20049;-78
2022/04/03 05:06:53;;;;;;;4.45;1.85;;;;;;;2.36;57.95;96747.06;4938720;28;20058;-78
2022/04/03 05:09:21;;;;;;;2.65;1.40;;;;;;;2.51;57.64;96773.00;4970756;28;20046;-78
2022/04/03 05:11:48;;;;;;;3.28;1.50;;;;;;;2.31;58.18;96772.22;4971899;28;20520;-78
2022/04/03 05:14:14;;;;;;;3.47;1.60;;;;;;;2.45;57.85;96774.97;4982515;28;20047;-78
2022/04/03 05:16:41;;;;;;;3.30;1.40;;;;;;;2.37;58.47;96787.25;4970537;28;20051;-77
2022/04/03 05:19:10;;;;;;;2.75;1.40;;;;;;;2.39;58.13;96776.97;4971982;28;20047;-78
2022/04/03 05:21:37;;;;;;;5.38;1.70;;;;;;;2.39;58.32;96776.97;4970753;28;20042;-78
2022/04/03 05:24:04;;;;;;;2.75;1.58;;;;;;;2.53;58.18;96773.50;4969439;28;20137;-78
2022/04/03 05:26:31;;;;;;;4.50;1.58;;;;;;;2.53;58.05;96779.69;4982639;28;20042;-78
2022/04/03 05:28:57;;;;;;;2.55;1.40;;;;;;;2.39;58.64;96785.06;4972187;28;20106;-78
2022/04/03 05:31:26;;;;;;;3.92;1.60;;;;;;;2.47;58.65;96788.97;4953917;28;20055;-79
2022/04/03 05:33:55;;;;;;;3.45;1.60;;;;;;;2.61;58.23;96791.69;4971016;28;20047;-78
2022/04/03 05:36:21;;;;;;;3.53;1.67;;;;;;;2.71;57.95;96793.41;4983461;28;20510;-78
2022/04/03 05:38:48;;;;;;;4.32;1.70;;;;;;;2.64;58.06;96784.91;4978912;28;20043;-79
2022/04/03 05:41:15;;;;;;;4.90;1.90;;;;;;;2.71;58.15;96792.63;4951357;28;20050;-77
2022/04/03 05:43:42;;;;;;;3.90;1.70;;;;;;;2.72;58.06;96796.91;4969820;28;20455;-78
2022/04/03 05:46:10;;;;;;;2.70;1.50;;;;;;;2.69;58.07;96807.22;4959149;28;20042;-77
2022/04/03 05:48:36;;;;;;;3.20;1.60;;;;;;;2.66;58.09;96774.63;4965464;28;20089;-78
2022/04/03 05:51:03;;;;;;;3.40;1.50;;;;;;;2.78;57.38;96811.91;4966007;28;20039;-78
2022/04/03 05:53:29;;;;;;;2.97;1.58;;;;;;;2.67;57.53;96798.63;4961029;28;20137;-78
2022/04/03 05:55:56;;;;;;;3.13;1.63;;;;;;;2.70;57.39;96799.91;4952465;28;20055;-77
2022/04/03 05:58:23;;;;;;;3.67;1.70;;;;;;;2.78;57.10;96807.31;4970639;28;20321;-78
2022/04/03 06:00:50;;;;;;;4.65;1.80;;;;;;;2.88;56.77;96819.84;4951346;28;20078;-76
2022/04/03 06:03:16;;;;;;;2.70;1.52;;;;;;;2.96;56.25;96812.94;4971992;28;20062;-76
2022/04/03 06:05:42;;;;;;;5.28;2.03;;;;;;;2.90;56.25;96828.44;4971967;28;20490;-76
2022/04/03 06:08:08;;;;;;;4.28;1.70;;;;;;;2.84;56.22;96824.22;4953791;28;20062;-77
2022/04/03 06:10:35;;;;;;;4.30;1.70;;;;;;;2.67;56.52;96822.09;4953868;28;20427;-76
2022/04/03 06:13:03;;;;;;;5.18;1.73;;;;;;;2.82;56.04;96823.72;4970238;28;20058;-76
2022/04/03 06:15:33;;;;;;;3.13;1.42;;;;;;;2.90;55.71;96830.34;4966204;28;20134;-76
2022/04/03 06:18:01;;;;;;;4.68;1.70;;;;;;;2.97;55.49;96830.75;4975709;28;20078;-77
2022/04/03 06:20:28;;;;;;;3.78;1.60;;;;;;;2.86;55.80;96829.31;4969900;28;20527;-76
2022/04/03 06:22:54;;;;;;;2.92;1.50;;;;;;;2.81;55.71;96816.72;4970324;28;20551;-77
2022/04/03 06:25:21;;;;;;;4.45;1.90;;;;;;;2.95;55.21;96835.63;4970304;28;20053;-77
2022/04/03 06:27:47;;;;;;;6.07;1.75;;;;;;;2.94;55.00;96847.53;4973302;28;20038;-76
2022/04/03 06:30:14;;;;;;;4.57;1.75;;;;;;;2.80;55.30;96845.59;4967283;28;20057;-75
2022/04/03 06:32:40;;;;;;;4.82;1.63;;;;;;;2.86;55.38;96857.13;4953393;28;20047;-75
2022/04/03 06:35:08;;;;;;;4.03;1.60;;;;;;;2.81;55.39;96846.38;4953416;28;20511;-77
2022/04/03 06:37:35;;;;;;;6.63;1.77;;;;;;;2.74;55.54;96857.59;4951703;28;20051;-75
2022/04/03 06:40:02;;;;;;;6.03;2.15;;;;;;;2.88;55.23;96859.50;4970021;28;20495;-79
2022/04/03 06:42:30;;;;;;;7.57;1.80;;;;;;;2.97;54.95;96873.94;4953374;28;20459;-71
2022/04/03 06:44:57;;;;;;;5.70;2.10;;;;;;;2.96;55.10;96878.50;4968109;28;20486;-77
2022/04/03 06:47:23;;;;;;;4.40;1.70;;;;;;;2.89;54.65;96870.00;4956331;28;20046;-76
2022/04/03 06:49:50;;;;;;;4.50;1.75;;;;;;;2.97;54.81;96885.53;4976850;28;20043;-76
2022/04/03 06:52:17;;;;;;;4.95;1.90;;;;;;;2.97;54.71;96890.94;4969800;28;20059;-77
2022/04/03 06:54:44;;;;;;;5.35;1.80;;;;;;;3.04;54.61;96892.44;4983976;28;20074;-77
2022/04/03 06:57:13;;;;;;;4.30;1.88;;;;;;;2.93;54.49;96889.13;4971987;28;20053;-77
2022/04/03 06:59:39;;;;;;;4.10;1.70;;;;;;;2.95;54.73;96898.50;4956251;28;20054;-76
2022/04/03 07:02:05;;;;;;;2.83;1.50;;;;;;;3.09;54.00;96901.25;4972744;28;20082;-77
2022/04/03 07:04:32;;;;;;;3.97;1.80;;;;;;;2.96;54.35;96891.22;4970160;28;20547;-79
2022/04/03 07:06:58;;;;;;;4.25;1.77;;;;;;;3.01;54.52;96911.94;4972793;28;20406;-78
2022/04/03 07:09:25;;;;;;;4.18;1.70;;;;;;;3.10;54.44;96920.94;4973380;28;20066;-79
2022/04/03 07:11:51;;;;;;;5.93;2.00;;;;;;;3.09;54.30;96917.47;4969611;28;20411;-78
2022/04/03 07:14:17;;;;;;;4.68;1.98;;;;;;;3.09;54.19;96908.53;4972122;28;20082;-78
2022/04/03 07:16:44;;;;;;;3.70;1.83;;;;;;;3.12;54.03;96924.16;4972536;28;20511;-78
2022/04/03 07:19:11;;;;;;;6.75;1.70;;;;;;;3.05;54.36;96927.25;4954209;28;20146;-78
2022/04/03 07:21:37;;;;;;;4.43;1.85;;;;;;;3.26;53.73;96932.28;4959943;28;20065;-78
2022/04/03 07:24:06;;;;;;;3.50;1.70;;;;;;;3.16;53.73;96944.06;4972218;28;20054;-78
2022/04/03 07:26:34;;;;;;;5.60;1.70;;;;;;;3.23;53.33;96941.78;4955004;28;20523;-78
2022/04/03 07:29:00;;;;;;;6.03;2.00;;;;;;;3.16;53.52;96937.88;4973723;28;20138;-78
2022/04/03 07:31:28;;;;;;;4.75;1.95;;;;;;;3.02;53.58;96929.75;4971331;28;20046;-79
2022/04/03 07:33:55;;;;;;;4.75;1.65;;;;;;;3.10;53.47;96953.34;4973606;28;20106;-78
2022/04/03 07:36:21;;;;;;;4.87;1.80;;;;;;;3.09;53.26;96933.66;4971926;28;20109;-79
2022/04/03 07:38:48;;;;;;;4.07;1.85;;;;;;;3.17;52.96;96956.47;4973865;28;20142;-78
2022/04/03 07:41:14;;;;;;;3.80;1.73;;;;;;;3.18;53.09;96957.25;4972244;28;20070;-78
2022/04/03 07:43:41;;;;;;;5.22;1.90;;;;;;;3.17;53.02;96966.47;4955469;28;20089;-78
2022/04/03 07:46:08;;;;;;;4.53;2.00;;;;;;;3.19;53.00;96959.69;4969282;28;20078;-78
2022/04/03 07:48:35;;;;;;;4.30;1.60;;;;;;;3.16;53.21;96989.16;4966268;28;20039;-78
2022/04/03 07:51:01;;;;;;;3.45;1.60;;;;;;;3.05;53.35;96983.94;4964801;28;20055;-78
2022/04/03 07:53:27;;;;;;;5.20;1.77;;;;;;;2.93;53.23;96964.69;4977661;28;20137;-78
2022/04/03 07:55:54;;;;;;;4.50;2.00;;;;;;;3.04;53.19;96992.34;4966869;28;20166;-78
2022/04/03 07:58:20;;;;;;;4.05;1.70;;;;;;;2.92;53.07;96993.56;4972309;28;20077;-78
2022/04/03 08:00:47;;;;;;;4.47;1.80;;;;;;;3.12;52.89;96997.88;4971022;28;20056;-78
2022/04/03 08:03:14;;;;;;;4.45;1.80;;;;;;;3.01;52.80;97001.03;4955344;28;20047;-78
2022/04/03 08:05:40;;;;;;;4.68;1.75;;;;;;;2.94;52.82;97001.41;4955397;28;20427;-79
2022/04/03 08:08:07;;;;;;;5.35;1.73;;;;;;;3.05;52.56;97010.94;4971228;28;20043;-78
2022/04/03 08:10:34;;;;;;;3.67;1.70;;;;;;;2.87;52.68;97004.47;4972178;28;20039;-78
2022/04/03 08:13:00;;;;;;;3.63;1.77;;;;;;;3.05;52.56;97023.63;4956047;28;20547;-78
2022/04/03 08:15:28;;;;;;;6.45;1.85;;;;;;;3.04;52.57;97025.50;4971070;28;20053;-78
2022/04/03 08:17:55;;;;;;;4.88;1.90;;;;;;;2.90;52.38;97009.28;4970542;28;20047;-77
2022/04/03 08:20:21;;;;;;;5.43;2.00;;;;;;;3.08;52.26;97039.25;4971057;28;20465;-79
2022/04/03 08:22:49;;;;;;;4.53;1.85;;;;;;;3.02;52.32;97037.72;4970048;28;20059;-79
2022/04/03 08:25:16;;;;;;;5.43;2.10;;;;;;;3.09;52.23;97032.75;4954053;28;20046;-78
2022/04/03 08:27:43;;;;;;;4.68;2.00;;;;;;;3.17;51.97;97052.88;4955576;28;20057;-78
2022/04/03 08:30:13;;;;;;;5.03;2.17;;;;;;;3.09;52.09;97038.13;4967831;28;20130;-78
2022/04/03 08:32:39;;;;;;;5.80;2.30;;;;;;;3.19;51.89;97050.69;4975078;28;20093;-79
2022/04/03 08:35:07;;;;;;;6.75;2.10;;;;;;;3.17;52.06;97047.47;4986356;28;20663;-78
2022/04/03 08:37:34;;;;;;;5.18;2.17;;;;;;;3.29;51.82;97044.34;4973152;28;20054;-73
2022/04/03 08:40:00;;;;;;;8.32;2.33;;;;;;;3.32;51.88;97049.16;4971683;28;20055;-70
2022/04/03 08:42:26;;;;;;;5.72;2.28;;;;;;;3.45;51.66;97051.09;4971576;28;20070;-70
2022/04/03 08:44:53;;;;;;;6.47;2.40;;;;;;;3.46;51.42;97044.59;4970444;28;20046;-70
2022/04/03 08:47:20;;;;;;;6.47;2.20;;;;;;;3.45;51.25;97043.00;4965117;28;20523;-76
2022/04/03 08:49:47;;;;;;;7.10;2.60;;;;;;;3.43;51.12;97063.28;4965428;28;20043;-76
2022/04/03 08:52:14;;;;;;;7.35;2.40;;;;;;;3.38;51.08;97062.28;4973225;28;20047;-75
2022/04/03 08:54:42;;;;;;;7.40;2.30;;;;;;;3.52;50.82;97056.91;4965633;28;20054;-72
2022/04/03 08:57:08;;;;;;;6.68;2.40;;;;;;;3.62;50.45;97072.16;4968262;28;20077;-73
2022/04/03 08:59:37;;;;;;;4.53;1.95;;;;;;;3.64;49.87;97071.88;4980422;28;20083;-73
2022/04/03 09:02:03;;;;;;;5.30;2.22;;;;;;;3.72;49.83;97073.09;4967344;28;20090;-72
2022/04/03 09:04:31;;;;;;;6.50;2.30;;;;;;;3.77;49.63;97073.00;4969655;28;20070;-73
2022/04/03 09:06:59;;;;;;;5.32;2.10;;;;;;;3.86;49.44;97065.81;4953232;28;20707;-75
2022/04/03 09:09:27;;;;;;;5.53;2.25;;;;;;;4.07;49.35;97077.06;4979347;28;20046;-72
2022/04/03 09:12:05;;;;;;;;;;;;;;;4.11;49.12;97088.88;4970393;28;20054;-72
2022/04/03 09:14:32;;;;;;;7.00;2.67;;;;;;;4.19;48.97;97087.38;4964869;28;19926;-72
2022/04/03 09:16:58;;;;;;;8.13;2.72;;;;;;;4.13;49.17;97080.44;4972517;28;20210;-69
2022/04/03 09:19:32;;;;;;;12.50;2.97;;;;;;;4.17;49.02;97069.84;4970231;28;20070;-73
2022/04/03 09:21:58;;;;;;;8.50;3.17;;;;;;;4.35;48.96;97087.09;4967404;28;20054;-71
2022/04/03 09:24:24;;;;;;;7.18;3.05;;;;;;;4.41;49.02;97088.59;4971040;28;20511;-72
2022/04/03 09:26:58;;;;;;;8.27;3.05;;;;;;;4.51;48.66;97090.28;4970379;28;20418;-71
2022/04/03 09:29:25;;;;;;;8.70;3.38;;;;;;;4.70;48.41;97105.63;4966476;28;20053;-73
2022/04/03 09:31:59;;;;;;;10.32;2.95;;;;;;;4.95;48.06;97091.53;4965914;28;20057;-72
2022/04/03 09:34:27;;;;;;;6.63;2.65;;;;;;;5.05;47.69;97095.16;4964233;28;20061;-72
2022/04/03 09:36:57;;;;;;;7.82;2.42;;;;;;;5.24;47.35;97100.44;4968278;28;20059;-72
2022/04/03 09:39:25;;;;;;;9.90;3.22;;;;;;;5.34;46.98;97121.06;4969415;28;20406;-75
2022/04/03 09:41:58;;;;;;;6.57;2.72;;;;;;;5.52;46.58;97113.84;4974804;28;20137;-72
2022/04/03 09:44:26;;;;;;;8.55;3.10;;;;;;;5.74;46.33;97121.19;4977686;28;20051;-72
2022/04/03 09:47:22;;;;;;;8.93;3.03;;;;;;;5.87;46.10;97132.28;4971500;28;20046;-75
2022/04/03 09:49:54;;;;;;;6.60;2.65;;;;;;;5.87;45.73;97127.69;4996207;28;20050;-76
2022/04/03 09:52:35;;;;;;;7.40;3.30;;;;;;;6.04;45.84;97123.50;4968191;28;20051;-76
2022/04/03 09:55:06;;;;;;;6.55;2.80;;;;;;;6.23;45.50;97113.22;4967123;28;20161;-76
2022/04/03 09:57:33;;;;;;;7.53;2.78;;;;;;;6.18;45.20;97110.66;4984236;28;20090;-75
2022/04/03 10:00:00;;;;;;;7.82;2.95;;;;;;;6.06;45.24;97102.28;4969387;28;20071;-75
2022/04/03 10:02:37;;;;;;;5.75;2.38;;;;;;;6.25;44.96;97142.78;4962824;28;20059;-76
2022/04/03 10:05:06;;;;;;;7.88;2.70;;;;;;;6.40;44.78;97141.56;4968900;28;20043;-76
2022/04/03 10:07:37;;;;;;;6.43;2.67;;;;;;;6.57;44.49;97146.28;4983273;28;20039;-76
2022/04/03 10:10:04;;;;;;;8.38;3.20;;;;;;;6.73;44.44;97135.00;4983435;28;20094;-75
2022/04/03 10:12:31;;;;;;;7.20;3.20;;;;;;;6.70;44.09;97132.88;4967916;28;20054;-75
2022/04/03 10:14:59;;;;;;;6.00;2.70;;;;;;;6.67;44.09;97145.97;4969184;28;20141;-76
2022/04/03 10:17:25;;;;;;;6.20;3.08;;;;;;;6.87;44.03;97132.97;4969631;28;20058;-75
2022/04/03 10:19:52;;;;;;;8.40;2.63;;;;;;;6.96;43.96;97135.69;4969126;28;20050;-76
2022/04/03 10:22:26;;;;;;;6.57;2.72;;;;;;;6.99;43.96;97145.09;4937549;28;20051;-76
2022/04/03 10:24:56;;;;;;;6.13;2.40;;;;;;;6.97;43.99;97145.44;4953151;28;20090;-76
2022/04/03 10:27:27;;;;;;;11.02;2.83;;;;;;;6.88;44.18;97136.47;4954934;28;20047;-75
2022/04/03 10:29:56;;;;;;;5.88;2.30;;;;;;;6.88;43.93;97150.84;4990074;28;20047;-75
2022/04/03 10:32:24;;;;;;;7.40;2.58;;;;;;;6.90;44.19;97145.91;4955343;28;20118;-75
2022/04/03 10:34:56;;;;;;;8.15;2.88;;;;;;;7.00;44.16;97155.66;4972164;28;20134;-75
2022/04/03 10:37:31;;;;;;;6.40;2.78;;;;;;;7.15;43.59;97154.41;4972418;28;20285;-76
2022/04/03 10:40:03;;;;;;;6.68;2.55;;;;;;;7.24;43.43;97151.69;4956971;28;20042;-74
2022/04/03 10:42:30;;;;;;;8.65;2.70;;;;;;;7.14;43.46;97166.41;4941995;28;20149;-76
2022/04/03 10:45:19;;;;;;;6.57;2.50;;;;;;;7.15;43.53;97173.44;4968400;28;20047;-75
2022/04/03 10:47:47;;;;;;;5.85;2.45;;;;;;;7.09;43.40;97170.06;4972594;28;20059;-74
2022/04/03 10:50:22;;;;;;;7.45;2.92;;;;;;;7.03;43.74;97165.13;4972248;28;20050;-74
2022/04/03 10:52:56;;;;;;;6.18;2.50;;;;;;;6.98;43.76;97171.50;4973319;28;20054;-74
2022/04/03 10:55:28;;;;;;;8.57;2.40;;;;;;;6.79;43.60;97152.72;4967907;28;20105;-73
2022/04/03 10:57:56;;;;;;;7.40;2.85;;;;;;;6.88;43.57;97178.00;4958209;28;20082;-72
2022/04/03 11:00:34;;;;;;;6.90;2.50;;;;;;;6.97;43.12;97183.47;4952077;29;20113;-73
2022/04/03 11:03:22;;;;;;;5.65;2.17;;;;;;;6.88;43.18;97178.00;4948107;28;20226;-74
2022/04/03 11:05:48;;;;;;;5.38;2.20;;;;;;;7.06;43.03;97191.66;4971729;28;20427;-74
2022/04/03 11:08:19;;;;;;;6.28;2.53;;;;;;;7.02;42.72;97191.47;4986592;28;20447;-74
2022/04/03 11:10:52;;;;;;;5.20;2.40;;;;;;;7.14;42.70;97193.56;4954785;28;20086;-73
2022/04/03 11:13:21;;;;;;;5.72;2.28;;;;;;;7.23;42.40;97197.13;4957125;28;20038;-75
2022/04/03 11:15:53;;;;;;;6.75;2.38;;;;;;;7.37;42.10;97190.75;4985978;28;20058;-75
2022/04/03 11:18:27;;;;;;;7.68;2.72;;;;;;;7.33;41.67;97198.75;4972689;28;20051;-75
2022/04/03 11:21:07;;;;;;;5.50;2.30;;;;;;;7.21;42.05;97204.78;4970770;28;20097;-74
2022/04/03 11:23:35;;;;;;;12.70;2.55;;;;;;;7.34;42.28;97215.88;4970663;28;20046;-75
2022/04/03 11:26:01;;;;;;;;;;;;;;;7.43;41.87;97211.22;4983345;28;20050;-75
2022/04/03 11:28:28;;;;;;;4.90;2.10;;;;;;;7.44;42.08;97215.53;4971122;28;19930;-75
2022/04/03 11:30:55;;;;;;;8.90;2.43;;;;;;;7.36;42.07;97214.41;4972120;28;20061;-76
2022/04/03 11:33:22;;;;;;;9.90;2.40;;;;;;;7.32;42.12;97220.78;4953669;28;20053;-76
2022/04/03 11:35:49;;;;;;;7.05;2.03;;;;;;;7.34;42.17;97216.66;4971617;28;20051;-76
2022/04/03 11:38:17;;;;;;;8.30;2.30;;;;;;;7.57;41.81;97219.25;4968271;28;20692;-76
2022/04/03 11:40:44;;;;;;;6.68;2.42;;;;;;;7.58;41.71;97230.94;4970587;28;20535;-74
2022/04/03 11:43:14;;;;;;;6.15;2.17;;;;;;;7.59;41.68;97230.63;4984412;28;20577;-75